Time,TemperatureF,DewpointF,PressureIn,WindDirection,WindDirectionDegrees,WindSpeedMPH,WindSpeedGustMPH,Humidity,HourlyPrecipIn,Conditions,Clouds,dailyrainin,SolarRadiationWatts/m^2,SoftwareType,DateUTC
2013-05-24 00:03:00,53.0,53.0,-100.00,WNW,286,6.0,11.0,99,0.00,,,0.82,0.000000,,2013-05-24 04:03:00,
2013-05-24 00:33:00,48.0,47.0,-100.00,NW,305,5.0,12.0,98,0.01,,,0.83,0.000000,,2013-05-24 04:33:00,
2013-05-24 00:42:00,48.0,47.0,-100.00,NW,305,5.0,12.0,98,0.01,,,0.83,0.000000,,2013-05-24 04:42:00,
2013-05-24 00:53:00,48.0,47.0,-100.00,NW,305,5.0,12.0,98,0.01,,,0.83,0.000000,,2013-05-24 04:53:00,
2013-05-24 01:02:00,48.0,47.0,-100.00,NW,305,5.0,12.0,98,0.01,,,0.83,0.000000,,2013-05-24 05:02:00,
2013-05-24 01:32:00,44.0,43.0,-100.00,NW,321,6.0,12.0,96,0.02,,,0.85,0.000000,,2013-05-24 05:32:00,
2013-05-24 01:42:00,44.0,43.0,-100.00,NW,321,6.0,12.0,96,0.02,,,0.85,0.000000,,2013-05-24 05:42:00,
2013-05-24 01:52:00,44.0,43.0,-100.00,NW,321,6.0,12.0,96,0.02,,,0.85,0.000000,,2013-05-24 05:52:00,
2013-05-24 02:02:00,44.0,43.0,-100.00,NW,321,6.0,12.0,96,0.02,,,0.85,0.000000,,2013-05-24 06:02:00,
2013-05-24 02:32:00,43.0,42.0,-100.00,NW,317,4.0,7.0,97,0.00,,,0.85,0.000000,,2013-05-24 06:32:00,
2013-05-24 02:42:00,43.0,42.0,-100.00,NW,317,4.0,7.0,97,0.00,,,0.85,0.000000,,2013-05-24 06:42:00,
2013-05-24 02:52:00,43.0,42.0,-100.00,NW,317,4.0,7.0,97,0.00,,,0.85,0.000000,,2013-05-24 06:52:00,
2013-05-24 03:02:00,43.0,42.0,-100.00,NW,317,4.0,7.0,97,0.00,,,0.85,0.000000,,2013-05-24 07:02:00,
2013-05-24 03:32:00,41.0,40.0,-100.00,NNW,331,4.0,8.0,96,0.01,,,0.62,0.000000,,2013-05-24 07:32:00,
2013-05-24 03:42:00,41.0,40.0,-100.00,NNW,331,4.0,8.0,96,0.01,,,0.62,0.000000,,2013-05-24 07:42:00,
2013-05-24 03:52:00,41.0,40.0,-100.00,NNW,331,4.0,8.0,96,0.01,,,0.62,0.000000,,2013-05-24 07:52:00,
2013-05-24 04:02:00,41.0,40.0,-100.00,NNW,331,4.0,8.0,96,0.01,,,0.62,0.000000,,2013-05-24 08:02:00,
2013-05-24 04:33:00,40.0,39.0,-100.00,North,355,5.0,10.0,95,0.01,,,0.51,0.000000,,2013-05-24 08:33:00,
2013-05-24 04:42:00,40.0,39.0,-100.00,North,355,5.0,10.0,95,0.01,,,0.51,0.000000,,2013-05-24 08:42:00,
2013-05-24 04:52:00,40.0,39.0,-100.00,North,355,5.0,10.0,95,0.01,,,0.51,0.000000,,2013-05-24 08:52:00,
2013-05-24 05:02:00,40.0,39.0,-100.00,North,355,5.0,10.0,95,0.01,,,0.51,0.000000,,2013-05-24 09:02:00,
2013-05-24 05:33:00,38.0,36.0,-100.00,NW,319,5.0,11.0,94,0.00,,,0.51,0.000000,,2013-05-24 09:33:00,
2013-05-24 05:42:00,38.0,36.0,-100.00,NW,319,5.0,11.0,94,0.00,,,0.51,0.000000,,2013-05-24 09:42:00,
2013-05-24 05:53:00,38.0,36.0,-100.00,NW,319,5.0,11.0,94,0.00,,,0.51,0.000000,,2013-05-24 09:53:00,
2013-05-24 06:03:00,38.0,36.0,-100.00,NW,319,5.0,11.0,94,0.00,,,0.51,0.000000,,2013-05-24 10:03:00,
2013-05-24 06:33:00,37.0,35.0,-100.00,NW,325,4.0,9.0,93,0.01,,,0.51,1.000000,,2013-05-24 10:33:00,
2013-05-24 06:42:00,37.0,35.0,-100.00,NW,325,4.0,9.0,93,0.01,,,0.51,1.000000,,2013-05-24 10:42:00,
2013-05-24 06:53:00,37.0,35.0,-100.00,NW,325,4.0,9.0,93,0.01,,,0.51,1.000000,,2013-05-24 10:53:00,
2013-05-24 07:02:00,37.0,35.0,-100.00,NW,325,4.0,9.0,93,0.01,,,0.51,1.000000,,2013-05-24 11:02:00,
2013-05-24 07:32:00,37.0,35.0,-100.00,NNW,327,4.0,11.0,92,0.00,,,0.51,17.000000,,2013-05-24 11:32:00,
2013-05-24 07:42:00,37.0,35.0,-100.00,NNW,327,4.0,11.0,92,0.00,,,0.51,17.000000,,2013-05-24 11:42:00,
2013-05-24 07:52:00,37.0,35.0,-100.00,NNW,327,4.0,11.0,92,0.00,,,0.51,17.000000,,2013-05-24 11:52:00,
2013-05-24 08:02:00,37.0,35.0,-100.00,NNW,327,4.0,11.0,92,0.00,,,0.51,17.000000,,2013-05-24 12:02:00,
2013-05-24 08:33:00,38.0,35.0,-100.00,NW,308,6.0,13.0,90,0.00,,,0.51,79.000000,,2013-05-24 12:33:00,
2013-05-24 08:42:00,38.0,35.0,-100.00,NW,308,6.0,13.0,90,0.00,,,0.51,79.000000,,2013-05-24 12:42:00,
2013-05-24 08:52:00,38.0,35.0,-100.00,NW,308,6.0,13.0,90,0.00,,,0.51,79.000000,,2013-05-24 12:52:00,
2013-05-24 09:02:00,38.0,35.0,-100.00,NW,308,6.0,13.0,90,0.00,,,0.51,79.000000,,2013-05-24 13:02:00,
2013-05-24 09:32:00,39.0,36.0,-100.00,NW,313,5.0,11.0,88,0.00,,,0.51,149.000000,,2013-05-24 13:32:00,
2013-05-24 09:42:00,39.0,36.0,-100.00,NW,313,5.0,11.0,88,0.00,,,0.51,149.000000,,2013-05-24 13:42:00,
2013-05-24 09:52:00,39.0,36.0,-100.00,NW,313,5.0,11.0,88,0.00,,,0.51,149.000000,,2013-05-24 13:52:00,
2013-05-24 10:02:00,39.0,36.0,-100.00,NW,313,5.0,11.0,88,0.00,,,0.51,149.000000,,2013-05-24 14:02:00,
2013-05-24 10:32:00,41.0,38.0,-100.00,NW,320,5.0,8.0,88,0.00,,,0.51,271.000000,,2013-05-24 14:32:00,
2013-05-24 10:42:00,41.0,38.0,-100.00,NW,320,5.0,8.0,88,0.00,,,0.51,271.000000,,2013-05-24 14:42:00,
2013-05-24 10:52:00,41.0,38.0,-100.00,NW,320,5.0,8.0,88,0.00,,,0.51,271.000000,,2013-05-24 14:52:00,
2013-05-24 11:02:00,41.0,38.0,-100.00,NW,320,5.0,8.0,88,0.00,,,0.51,271.000000,,2013-05-24 15:02:00,
2013-05-24 11:33:00,41.0,37.0,-100.00,NW,316,4.0,10.0,87,0.00,,,0.51,431.000000,,2013-05-24 15:33:00,
2013-05-24 11:43:00,41.0,37.0,-100.00,NW,316,4.0,10.0,87,0.00,,,0.51,431.000000,,2013-05-24 15:43:00,
2013-05-24 11:52:00,41.0,37.0,-100.00,NW,316,4.0,10.0,87,0.00,,,0.51,431.000000,,2013-05-24 15:52:00,
2013-05-24 12:03:00,41.0,37.0,-100.00,NW,316,4.0,10.0,87,0.00,,,0.51,431.000000,,2013-05-24 16:03:00,
2013-05-24 12:33:00,43.0,36.0,-100.00,NW,306,6.0,10.0,77,0.00,,,0.51,374.000000,,2013-05-24 16:33:00,
2013-05-24 12:42:00,43.0,36.0,-100.00,NW,306,6.0,10.0,77,0.00,,,0.51,374.000000,,2013-05-24 16:42:00,
2013-05-24 12:52:00,43.0,36.0,-100.00,NW,306,6.0,10.0,77,0.00,,,0.51,374.000000,,2013-05-24 16:52:00,
2013-05-24 13:02:00,43.0,36.0,-100.00,NW,306,6.0,10.0,77,0.00,,,0.51,374.000000,,2013-05-24 17:02:00,
2013-05-24 14:32:00,39.0,36.0,-100.00,WNW,301,6.0,14.0,88,-99.99,,,0.51,184.000000,,2013-05-24 18:32:00,
2013-05-24 14:42:00,39.0,36.0,-100.00,WNW,301,6.0,14.0,88,-99.99,,,0.51,184.000000,,2013-05-24 18:42:00,
2013-05-24 14:52:00,39.0,36.0,-100.00,WNW,301,6.0,14.0,88,-99.99,,,0.51,184.000000,,2013-05-24 18:52:00,
2013-05-24 15:01:00,39.0,36.0,-100.00,WNW,301,6.0,14.0,88,-99.99,,,0.51,184.000000,,2013-05-24 19:01:00,
2013-05-24 15:32:00,40.0,35.0,-100.00,NW,307,5.0,9.0,82,0.00,,,0.51,188.000000,,2013-05-24 19:32:00,
2013-05-24 15:42:00,40.0,35.0,-100.00,NW,307,5.0,9.0,82,0.00,,,0.51,188.000000,,2013-05-24 19:42:00,
2013-05-24 15:52:00,40.0,35.0,-100.00,NW,307,5.0,9.0,82,0.00,,,0.51,188.000000,,2013-05-24 19:52:00,
2013-05-24 16:02:00,40.0,35.0,-100.00,NW,307,5.0,9.0,82,0.00,,,0.51,188.000000,,2013-05-24 20:02:00,
2013-05-24 16:32:00,42.0,34.0,-100.00,NW,316,6.0,10.0,74,0.00,,,0.51,271.000000,,2013-05-24 20:32:00,
2013-05-24 16:42:00,42.0,34.0,-100.00,NW,316,6.0,10.0,74,0.00,,,0.51,271.000000,,2013-05-24 20:42:00,
2013-05-24 16:52:00,42.0,34.0,-100.00,NW,316,6.0,10.0,74,0.00,,,0.51,271.000000,,2013-05-24 20:52:00,
2013-05-24 17:01:00,42.0,34.0,-100.00,NW,316,6.0,10.0,74,0.00,,,0.51,271.000000,,2013-05-24 21:01:00,
2013-05-24 17:33:00,42.0,33.0,-100.00,NW,308,5.0,9.0,70,0.00,,,0.51,297.000000,,2013-05-24 21:33:00,
2013-05-24 17:43:00,42.0,33.0,-100.00,NW,308,5.0,9.0,70,0.00,,,0.51,297.000000,,2013-05-24 21:43:00,
2013-05-24 17:53:00,42.0,33.0,-100.00,NW,308,5.0,9.0,70,0.00,,,0.51,297.000000,,2013-05-24 21:53:00,
2013-05-24 18:03:00,42.0,33.0,-100.00,NW,308,5.0,9.0,70,0.00,,,0.51,297.000000,,2013-05-24 22:03:00,
2013-05-24 18:33:00,43.0,33.0,-100.00,WNW,293,5.0,14.0,67,0.00,,,0.15,219.000000,,2013-05-24 22:33:00,
2013-05-24 18:42:00,43.0,33.0,-100.00,WNW,293,5.0,14.0,67,0.00,,,0.15,219.000000,,2013-05-24 22:42:00,
2013-05-24 18:52:00,43.0,33.0,-100.00,WNW,293,5.0,14.0,67,0.00,,,0.15,219.000000,,2013-05-24 22:52:00,
2013-05-24 19:02:00,43.0,33.0,-100.00,WNW,293,5.0,14.0,67,0.00,,,0.15,219.000000,,2013-05-24 23:02:00,
2013-05-24 19:32:00,42.0,33.0,-100.00,WNW,302,4.0,6.0,71,0.00,,,0.13,156.000000,,2013-05-24 23:32:00,
2013-05-24 19:42:00,42.0,33.0,-100.00,WNW,302,4.0,6.0,71,0.00,,,0.13,156.000000,,2013-05-24 23:42:00,
2013-05-24 19:52:00,42.0,33.0,-100.00,WNW,302,4.0,6.0,71,0.00,,,0.13,156.000000,,2013-05-24 23:52:00,
2013-05-24 20:01:00,42.0,33.0,-100.00,WNW,302,4.0,6.0,71,0.00,,,0.13,156.000000,,2013-05-25 00:01:00,
2013-05-24 20:32:00,41.0,35.0,-100.00,WNW,294,3.0,4.0,78,0.00,,,0.07,53.000000,,2013-05-25 00:32:00,
2013-05-24 20:42:00,41.0,35.0,-100.00,WNW,294,3.0,4.0,78,0.00,,,0.07,53.000000,,2013-05-25 00:42:00,
2013-05-24 20:52:00,41.0,35.0,-100.00,WNW,294,3.0,4.0,78,0.00,,,0.07,53.000000,,2013-05-25 00:52:00,
2013-05-24 21:01:00,41.0,35.0,-100.00,WNW,294,3.0,4.0,78,0.00,,,0.07,53.000000,,2013-05-25 01:01:00,
2013-05-24 21:32:00,40.0,35.0,-100.00,NW,304,4.0,8.0,83,0.00,,,0.06,7.000000,,2013-05-25 01:32:00,
2013-05-24 21:42:00,40.0,35.0,-100.00,NW,304,4.0,8.0,83,0.00,,,0.06,7.000000,,2013-05-25 01:42:00,
2013-05-24 21:52:00,40.0,35.0,-100.00,NW,304,4.0,8.0,83,0.00,,,0.06,7.000000,,2013-05-25 01:52:00,
2013-05-24 22:02:00,40.0,35.0,-100.00,NW,304,4.0,8.0,83,0.00,,,0.06,7.000000,,2013-05-25 02:02:00,
2013-05-24 22:32:00,37.0,35.0,-100.00,West,275,1.0,2.0,91,0.00,,,0.06,0.000000,,2013-05-25 02:32:00,
2013-05-24 22:42:00,37.0,35.0,-100.00,West,275,1.0,2.0,91,0.00,,,0.06,0.000000,,2013-05-25 02:42:00,
2013-05-24 22:52:00,37.0,35.0,-100.00,West,275,1.0,2.0,91,0.00,,,0.06,0.000000,,2013-05-25 02:52:00,
2013-05-24 23:02:00,37.0,35.0,-100.00,West,275,1.0,2.0,91,0.00,,,0.06,0.000000,,2013-05-25 03:02:00,
2013-05-24 23:33:00,37.0,35.0,-100.00,WNW,296,2.0,5.0,94,0.00,,,0.06,0.000000,,2013-05-25 03:33:00,
2013-05-24 23:43:00,37.0,35.0,-100.00,WNW,296,2.0,5.0,94,0.00,,,0.06,0.000000,,2013-05-25 03:43:00,
2013-05-24 23:53:00,37.0,35.0,-100.00,WNW,296,2.0,5.0,94,0.00,,,0.06,0.000000,,2013-05-25 03:53:00,